createdAt,value
2022-11-25T00:00:54.681Z,5.15
2022-11-25T00:01:55.063Z,5.13
2022-11-25T00:02:54.832Z,5.13
2022-11-25T00:03:55.182Z,5.12
2022-11-25T00:04:54.853Z,5.14
2022-11-25T00:05:54.782Z,5.16
2022-11-25T00:06:55.108Z,5.15
2022-11-25T00:07:54.920Z,5.15
2022-11-25T00:08:57.676Z,5.15
2022-11-25T00:09:54.885Z,5.18
2022-11-25T00:10:54.804Z,5.22
2022-11-25T00:11:55.238Z,5.23
2022-11-25T00:12:54.765Z,5.23
2022-11-25T00:13:54.702Z,5.23
2022-11-25T00:14:54.676Z,5.23
2022-11-25T00:15:54.658Z,5.22
2022-11-25T00:16:55.204Z,5.22
2022-11-25T00:17:54.751Z,5.21
2022-11-25T00:18:55.146Z,5.2
2022-11-25T00:19:57.675Z,5.19
2022-11-25T00:20:54.791Z,5.2
2022-11-25T00:21:54.668Z,5.22
2022-11-25T00:22:54.794Z,5.24
2022-11-25T00:23:54.654Z,5.24
2022-11-25T00:24:54.670Z,5.24
2022-11-25T00:25:54.770Z,5.23
2022-11-25T00:26:54.662Z,5.2
2022-11-25T00:27:54.678Z,5.2
2022-11-25T00:28:54.661Z,5.18
2022-11-25T00:29:54.661Z,5.17
2022-11-25T00:30:57.686Z,5.19
2022-11-25T00:31:54.843Z,5.2
2022-11-25T00:32:55.218Z,5.19
2022-11-25T00:33:55.321Z,5.18
2022-11-25T00:34:54.676Z,5.14
2022-11-25T00:35:54.662Z,5.1
2022-11-25T00:36:54.673Z,5.09
2022-11-25T00:37:55.099Z,5.08
2022-11-25T00:38:54.749Z,5.1
2022-11-25T00:39:54.815Z,5.09
2022-11-25T00:40:54.732Z,5.08
2022-11-25T00:41:57.855Z,5.06
2022-11-25T00:42:55.076Z,5.02
2022-11-25T00:43:54.742Z,5.01
2022-11-25T00:44:54.761Z,4.98
2022-11-25T00:45:54.848Z,5
2022-11-25T00:46:54.671Z,5.01
2022-11-25T00:47:54.701Z,4.99
2022-11-25T00:48:55.093Z,4.98
2022-11-25T00:49:55.039Z,4.99
2022-11-25T00:50:54.907Z,4.98
2022-11-25T00:51:54.760Z,4.96
2022-11-25T00:53:00.782Z,4.91
2022-11-25T00:53:58.720Z,4.87
2022-11-25T00:54:54.773Z,4.84
2022-11-25T00:55:54.827Z,4.78
2022-11-25T00:56:54.741Z,4.75
2022-11-25T00:57:55.120Z,4.77
2022-11-25T00:58:54.768Z,4.78
2022-11-25T00:59:54.674Z,4.77
2022-11-25T01:00:54.701Z,4.78
2022-11-25T01:01:54.739Z,4.83
2022-11-25T01:02:55.152Z,4.83
2022-11-25T01:03:57.673Z,4.82
2022-11-25T01:04:55.029Z,4.78
2022-11-25T01:05:54.753Z,4.81
2022-11-25T01:06:54.684Z,4.81
2022-11-25T01:07:54.728Z,4.79
2022-11-25T01:08:54.692Z,4.78
2022-11-25T01:09:54.769Z,4.73
2022-11-25T01:10:54.658Z,4.72
2022-11-25T01:11:54.652Z,4.72
2022-11-25T01:12:55.100Z,4.73
2022-11-25T01:14:00.657Z,4.69
2022-11-25T01:14:57.674Z,4.68
2022-11-25T01:15:54.734Z,4.67
2022-11-25T01:16:54.776Z,4.63
2022-11-25T01:17:55.149Z,4.56
2022-11-25T01:18:54.730Z,4.5
2022-11-25T01:19:55.098Z,4.44
2022-11-25T01:20:54.827Z,4.47
2022-11-25T01:21:54.674Z,4.48
2022-11-25T01:22:55.070Z,4.48
2022-11-25T01:23:54.894Z,4.48
2022-11-25T01:24:54.669Z,4.49
2022-11-25T01:25:57.684Z,4.5
2022-11-25T01:26:55.038Z,4.56
2022-11-25T01:27:55.031Z,4.6
2022-11-25T01:28:54.744Z,4.6
2022-11-25T01:29:54.678Z,4.66
2022-11-25T01:30:54.650Z,4.64
2022-11-25T01:31:54.844Z,4.56
2022-11-25T01:32:55.104Z,4.52
2022-11-25T01:33:54.775Z,4.53
2022-11-25T01:34:55.102Z,4.56
2022-11-25T01:35:54.767Z,4.68
2022-11-25T01:36:57.668Z,4.86
2022-11-25T01:37:54.767Z,4.95
2022-11-25T01:38:54.782Z,5
2022-11-25T01:39:54.671Z,5.05
2022-11-25T01:40:54.760Z,5.05
2022-11-25T01:41:54.723Z,5.04
2022-11-25T01:42:54.785Z,5.09
2022-11-25T01:43:54.664Z,5.16
2022-11-25T01:44:54.670Z,5.2
2022-11-25T01:45:54.678Z,5.28
2022-11-25T01:46:54.658Z,5.34
2022-11-25T01:48:00.748Z,5.44
2022-11-25T01:48:54.837Z,5.54
2022-11-25T01:49:55.096Z,5.64
2022-11-25T01:50:54.734Z,5.69
2022-11-25T01:51:54.671Z,5.68
2022-11-25T01:52:54.792Z,5.65
2022-11-25T01:53:54.674Z,5.61
2022-11-25T01:54:54.786Z,5.71
2022-11-25T01:55:54.672Z,5.74
2022-11-25T01:56:54.677Z,5.79
2022-11-25T01:57:55.100Z,5.81
2022-11-25T01:58:57.672Z,5.85
2022-11-25T01:59:54.758Z,5.84
2022-11-25T02:00:54.827Z,5.89
2022-11-25T02:01:54.705Z,5.95
2022-11-25T02:02:55.098Z,6.03
2022-11-25T02:03:54.783Z,6.09
2022-11-25T02:04:55.017Z,6.13
2022-11-25T02:05:54.682Z,6.17
2022-11-25T02:06:54.671Z,6.19
2022-11-25T02:07:54.786Z,6.19
2022-11-25T02:08:54.739Z,6.21
2022-11-25T02:09:57.669Z,6.27
2022-11-25T02:10:54.742Z,6.31
2022-11-25T02:11:54.652Z,6.35
2022-11-25T02:12:55.110Z,6.39
2022-11-25T02:13:54.763Z,6.39
2022-11-25T02:14:54.668Z,6.36
2022-11-25T02:15:54.686Z,6.37
2022-11-25T02:16:54.732Z,6.36
2022-11-25T02:17:55.102Z,6.37
2022-11-25T02:18:54.749Z,6.34
2022-11-25T02:19:55.095Z,6.26
2022-11-25T02:20:57.625Z,6.23
2022-11-25T02:21:54.727Z,6.18
2022-11-25T02:22:54.738Z,6.08
2022-11-25T02:23:54.672Z,5.95
2022-11-25T02:24:54.793Z,5.89
2022-11-25T02:25:54.738Z,5.83
2022-11-25T02:26:54.655Z,5.78
2022-11-25T02:27:55.125Z,5.78
2022-11-25T02:28:54.736Z,5.77
2022-11-25T02:29:54.753Z,5.77
2022-11-25T02:30:54.751Z,5.77
2022-11-25T02:31:54.701Z,5.77
2022-11-25T02:32:55.032Z,5.75
2022-11-25T02:33:54.772Z,5.73
2022-11-25T02:34:55.182Z,5.71
2022-11-25T02:35:54.676Z,5.66
2022-11-25T02:36:57.695Z,5.57
2022-11-25T02:37:54.831Z,5.49
2022-11-25T02:38:54.772Z,5.47
2022-11-25T02:39:54.770Z,5.42
2022-11-25T02:40:54.673Z,5.43
2022-11-25T02:41:54.651Z,5.44
2022-11-25T02:42:54.681Z,5.45
2022-11-25T02:43:54.678Z,5.44
2022-11-25T02:44:54.737Z,5.45
2022-11-25T02:45:54.879Z,5.49
2022-11-25T02:46:54.738Z,5.52
2022-11-25T02:48:00.755Z,5.44
2022-11-25T02:49:09.009Z,5.43
2022-11-25T02:49:55.105Z,5.41
2022-11-25T02:50:54.742Z,5.41
2022-11-25T02:51:54.652Z,5.41
2022-11-25T02:52:54.784Z,5.39
2022-11-25T02:53:54.657Z,5.35
2022-11-25T02:54:54.668Z,5.32
2022-11-25T02:55:54.672Z,5.32
2022-11-25T02:56:54.660Z,5.34
2022-11-25T02:57:55.162Z,5.38
2022-11-25T02:58:57.676Z,5.42
2022-11-25T02:59:54.703Z,5.45
2022-11-25T03:00:54.835Z,5.46
2022-11-25T03:01:54.849Z,5.43
2022-11-25T03:02:55.113Z,5.44
2022-11-25T03:03:54.763Z,5.47
2022-11-25T03:04:55.062Z,5.48
2022-11-25T03:05:54.667Z,5.48
2022-11-25T03:06:54.743Z,5.43
2022-11-25T03:07:55.194Z,5.4
2022-11-25T03:08:54.750Z,5.38
2022-11-25T03:09:57.681Z,5.37
2022-11-25T03:10:54.749Z,5.38
2022-11-25T03:11:54.661Z,5.31
2022-11-25T03:12:55.148Z,5.26
2022-11-25T03:13:54.775Z,5.24
2022-11-25T03:14:54.768Z,5.19
2022-11-25T03:15:54.676Z,5.21
2022-11-25T03:16:54.767Z,5.22
2022-11-25T03:17:55.151Z,5.22
2022-11-25T03:18:54.857Z,5.24
2022-11-25T03:19:55.145Z,5.27
2022-11-25T03:20:57.739Z,5.28
2022-11-25T03:21:54.747Z,5.27
2022-11-25T03:22:54.659Z,5.24
2022-11-25T03:23:54.651Z,5.22
2022-11-25T03:24:54.660Z,5.23
2022-11-25T03:25:54.648Z,5.25
2022-11-25T03:26:54.674Z,5.35
2022-11-25T03:27:55.109Z,5.43
2022-11-25T03:28:54.776Z,5.49
2022-11-25T03:29:54.788Z,5.51
2022-11-25T03:30:54.775Z,5.59
2022-11-25T03:31:57.713Z,5.68
2022-11-25T03:32:55.045Z,5.71
2022-11-25T03:33:54.852Z,5.76
2022-11-25T03:34:55.095Z,5.81
2022-11-25T03:35:54.773Z,5.76
2022-11-25T03:36:54.827Z,5.76
2022-11-25T03:37:54.689Z,5.81
2022-11-25T03:38:54.677Z,5.85
2022-11-25T03:39:54.718Z,5.89
2022-11-25T03:40:54.807Z,5.92
2022-11-25T03:41:54.747Z,5.92
2022-11-25T03:42:57.808Z,5.88
2022-11-25T03:43:54.757Z,5.84
2022-11-25T03:44:54.637Z,5.73
2022-11-25T03:45:54.709Z,5.64
2022-11-25T03:46:54.781Z,5.69
2022-11-25T03:47:55.095Z,5.72
2022-11-25T03:48:54.669Z,5.72
2022-11-25T03:49:55.151Z,5.75
2022-11-25T03:50:54.739Z,5.83
2022-11-25T03:51:54.669Z,5.9
2022-11-25T03:52:54.833Z,5.9
2022-11-25T03:53:57.668Z,5.92
2022-11-25T03:54:54.759Z,5.93
2022-11-25T03:55:54.666Z,5.91
2022-11-25T03:56:54.676Z,5.93
2022-11-25T03:57:55.102Z,5.93
2022-11-25T03:58:54.774Z,6
2022-11-25T03:59:54.723Z,6.05
2022-11-25T04:00:54.737Z,6.05
2022-11-25T04:01:54.802Z,6.03
2022-11-25T04:02:55.181Z,6.06
2022-11-25T04:03:54.765Z,6.1
2022-11-25T04:04:58.054Z,6.14
2022-11-25T04:05:54.732Z,6.16
2022-11-25T04:06:54.677Z,6.14
2022-11-25T04:07:57.740Z,6.14
2022-11-25T04:08:54.786Z,6.12
2022-11-25T04:09:54.650Z,6.07
2022-11-25T04:10:54.670Z,6.09
2022-11-25T04:11:54.642Z,6.11
2022-11-25T04:12:55.103Z,6.11
2022-11-25T04:13:54.969Z,6.12
2022-11-25T04:14:54.746Z,6.14
2022-11-25T04:15:57.708Z,6.16
2022-11-25T04:16:54.909Z,6.12
2022-11-25T04:17:55.030Z,6.09
2022-11-25T04:18:54.669Z,6.01
2022-11-25T04:19:55.098Z,5.97
2022-11-25T04:20:54.750Z,6.08
2022-11-25T04:21:54.657Z,6
2022-11-25T04:22:54.696Z,5.94
2022-11-25T04:23:54.660Z,5.95
2022-11-25T04:24:54.658Z,5.97
2022-11-25T04:25:54.661Z,5.98
2022-11-25T04:26:57.677Z,6.02
2022-11-25T04:27:54.744Z,6.05
2022-11-25T04:28:54.666Z,5.99
2022-11-25T04:29:54.672Z,6.02
2022-11-25T04:30:54.699Z,6.07
2022-11-25T04:31:54.667Z,6.06
2022-11-25T04:32:55.059Z,6.01
2022-11-25T04:33:54.681Z,6.07
2022-11-25T04:34:55.119Z,6.17
2022-11-25T04:35:54.743Z,6.18
2022-11-25T04:36:54.752Z,6.16
2022-11-25T04:37:57.673Z,6.11
2022-11-25T04:38:54.669Z,5.94
2022-11-25T04:39:54.674Z,5.9
2022-11-25T04:40:54.731Z,5.89
2022-11-25T04:41:54.649Z,6.02
2022-11-25T04:43:01.547Z,5.99
2022-11-25T04:43:54.781Z,5.96
2022-11-25T04:45:14.450Z,6
2022-11-25T04:46:14.321Z,6.08
2022-11-25T04:46:54.750Z,6.16
2022-11-25T04:47:55.111Z,6.27
2022-11-25T04:48:57.708Z,6.32
2022-11-25T04:49:54.892Z,6.29
2022-11-25T04:50:54.674Z,6.33
2022-11-25T04:51:54.667Z,6.35
2022-11-25T04:52:54.769Z,6.32
2022-11-25T04:53:54.671Z,6.24
2022-11-25T04:54:54.665Z,6.25
2022-11-25T04:55:54.673Z,6.27
2022-11-25T04:56:54.686Z,6.27
2022-11-25T04:57:55.097Z,6.31
2022-11-25T04:58:54.742Z,6.3
2022-11-25T04:59:57.738Z,6.3
2022-11-25T05:00:54.827Z,6.34
2022-11-25T05:01:54.676Z,6.34
2022-11-25T05:02:55.159Z,6.28
2022-11-25T05:03:57.644Z,6.21
2022-11-25T05:04:55.160Z,6.26
2022-11-25T05:05:54.673Z,6.22
2022-11-25T05:06:54.666Z,6.2
2022-11-25T05:07:55.142Z,6.2
2022-11-25T05:08:54.767Z,6.14
2022-11-25T05:09:54.668Z,6.14
2022-11-25T05:10:57.701Z,6.1
2022-11-25T05:11:54.842Z,6.05
2022-11-25T05:12:54.777Z,6.01
2022-11-25T05:13:54.740Z,6.01
2022-11-25T05:14:54.835Z,6.06
2022-11-25T05:15:54.764Z,6.05
2022-11-25T05:16:54.805Z,6.02
2022-11-25T05:17:55.109Z,6.02
2022-11-25T05:18:54.880Z,6.01
2022-11-25T05:19:55.041Z,6
2022-11-25T05:20:54.747Z,5.89
2022-11-25T05:21:57.672Z,5.87
2022-11-25T05:22:54.878Z,5.82
2022-11-25T05:23:55.963Z,5.76
2022-11-25T05:24:54.665Z,5.78
2022-11-25T05:25:54.676Z,5.84
2022-11-25T05:26:54.659Z,5.89
2022-11-25T05:27:55.051Z,5.85
2022-11-25T05:28:54.709Z,5.9
2022-11-25T05:29:56.403Z,5.95
2022-11-25T05:30:54.866Z,5.94
2022-11-25T05:31:54.671Z,6.05
2022-11-25T05:33:00.739Z,6.02
2022-11-25T05:33:54.751Z,6.01
2022-11-25T05:34:55.096Z,6.04
2022-11-25T05:35:54.774Z,6.1
2022-11-25T05:36:54.676Z,6.16
2022-11-25T05:37:54.831Z,6.16
2022-11-25T05:38:54.646Z,6.26
2022-11-25T05:39:54.676Z,6.34
2022-11-25T05:40:54.672Z,6.32
2022-11-25T05:41:54.669Z,6.37
2022-11-25T05:42:54.804Z,6.36
2022-11-25T05:43:57.738Z,6.35
2022-11-25T05:44:54.740Z,6.39
2022-11-25T05:45:54.825Z,6.41
2022-11-25T05:46:54.665Z,6.39
2022-11-25T05:47:55.102Z,6.44
2022-11-25T05:48:54.774Z,6.5
2022-11-25T05:49:55.038Z,6.48
2022-11-25T05:50:54.665Z,6.57
2022-11-25T05:51:54.655Z,6.66
2022-11-25T05:52:54.751Z,6.71
2022-11-25T05:53:54.659Z,6.73
2022-11-25T05:54:57.397Z,6.76
2022-11-25T05:55:54.722Z,6.72
2022-11-25T05:56:54.661Z,6.75
2022-11-25T05:57:55.097Z,6.78
2022-11-25T05:58:54.774Z,6.83
2022-11-25T05:59:57.675Z,6.76
2022-11-25T06:00:54.722Z,6.76
2022-11-25T06:01:54.738Z,6.75
2022-11-25T06:02:55.249Z,6.75
2022-11-25T06:03:54.875Z,6.79
2022-11-25T06:04:55.220Z,6.85
2022-11-25T06:05:57.661Z,6.83
2022-11-25T06:06:54.751Z,6.86
2022-11-25T06:07:55.241Z,6.83
2022-11-25T06:08:54.761Z,6.8
2022-11-25T06:09:57.657Z,6.8
2022-11-25T06:10:54.675Z,6.76
2022-11-25T06:11:54.726Z,6.75
2022-11-25T06:12:55.099Z,6.75
2022-11-25T06:13:54.752Z,6.73
2022-11-25T06:14:54.750Z,6.72
2022-11-25T06:15:54.769Z,6.78
2022-11-25T06:16:54.663Z,6.81
2022-11-25T06:17:55.095Z,6.85
2022-11-25T06:18:54.661Z,6.91
2022-11-25T06:19:55.103Z,6.93
2022-11-25T06:20:54.744Z,6.98
2022-11-25T06:21:57.702Z,7.01
2022-11-25T06:22:55.138Z,6.99
2022-11-25T06:23:54.666Z,6.97
2022-11-25T06:25:00.319Z,6.98
2022-11-25T06:25:54.676Z,6.99
2022-11-25T06:26:54.668Z,6.94
2022-11-25T06:28:12.276Z,6.98
2022-11-25T06:28:54.807Z,6.96
2022-11-25T06:29:54.782Z,6.93
2022-11-25T06:30:54.681Z,6.95
2022-11-25T06:31:54.655Z,7
2022-11-25T06:33:00.741Z,7
2022-11-25T06:33:54.742Z,7
2022-11-25T06:34:55.098Z,7.02
2022-11-25T06:35:54.718Z,6.99
2022-11-25T06:36:54.675Z,6.97
2022-11-25T06:37:55.119Z,7
2022-11-25T06:38:54.671Z,6.93
2022-11-25T06:39:54.648Z,6.87
2022-11-25T06:40:57.770Z,6.81
2022-11-25T06:41:54.684Z,6.74
2022-11-25T06:42:55.095Z,6.69
2022-11-25T06:43:57.803Z,6.69
2022-11-25T06:44:54.749Z,6.72
2022-11-25T06:45:54.830Z,6.73
2022-11-25T06:46:54.861Z,6.82
2022-11-25T06:47:55.103Z,6.8
2022-11-25T06:48:54.750Z,6.85
2022-11-25T06:49:54.806Z,6.85
2022-11-25T06:50:54.675Z,6.81
2022-11-25T06:51:54.658Z,6.85
2022-11-25T06:52:55.099Z,6.83
2022-11-25T06:53:54.742Z,6.78
2022-11-25T06:54:57.638Z,6.77
2022-11-25T06:55:54.765Z,6.82
2022-11-25T06:56:54.695Z,6.84
2022-11-25T06:58:08.416Z,6.81
2022-11-25T06:58:54.883Z,6.78
2022-11-25T06:59:54.747Z,6.83
2022-11-25T07:00:54.684Z,6.89
2022-11-25T07:01:54.799Z,6.91
2022-11-25T07:02:55.129Z,6.93
2022-11-25T07:03:54.753Z,6.91
2022-11-25T07:04:55.124Z,6.92
2022-11-25T07:05:57.696Z,6.9
2022-11-25T07:06:54.734Z,6.9
2022-11-25T07:07:55.180Z,6.93
2022-11-25T07:08:54.652Z,6.96
2022-11-25T07:09:54.776Z,6.97
2022-11-25T07:10:54.671Z,6.96
2022-11-25T07:11:54.743Z,7
2022-11-25T07:12:55.112Z,7.04
2022-11-25T07:13:54.875Z,7.05
2022-11-25T07:14:54.664Z,7.13
2022-11-25T07:15:54.899Z,7.2
2022-11-25T07:16:54.653Z,7.23
2022-11-25T07:17:55.034Z,7.22
2022-11-25T07:18:54.759Z,7.27
2022-11-25T07:19:55.090Z,7.29
2022-11-25T07:20:54.755Z,7.3
2022-11-25T07:21:57.671Z,7.39
2022-11-25T07:22:55.032Z,7.39
2022-11-25T07:23:54.770Z,7.39
2022-11-25T07:24:54.687Z,7.43
2022-11-25T07:25:54.676Z,7.48
2022-11-25T07:26:54.683Z,7.47
2022-11-25T07:27:55.072Z,7.48
2022-11-25T07:28:54.673Z,7.5
2022-11-25T07:30:19.177Z,7.52
2022-11-25T07:31:22.740Z,7.56
2022-11-25T07:31:54.752Z,7.57
2022-11-25T07:33:00.792Z,7.59
2022-11-25T07:33:54.668Z,7.49
2022-11-25T07:34:54.674Z,7.52
2022-11-25T07:35:54.652Z,7.55
2022-11-25T07:36:54.739Z,7.59
2022-11-25T07:37:55.182Z,7.66
2022-11-25T07:38:54.668Z,7.71
2022-11-25T07:39:54.670Z,7.8
2022-11-25T07:40:54.733Z,7.83
2022-11-25T07:41:54.756Z,7.91
2022-11-25T07:42:55.077Z,7.98
2022-11-25T07:43:57.881Z,8.05
2022-11-25T07:44:54.830Z,8.06
2022-11-25T07:45:54.745Z,8.07
2022-11-25T07:46:54.730Z,8.09
2022-11-25T07:47:55.147Z,8.11
2022-11-25T07:48:54.883Z,8.16
2022-11-25T07:49:55.034Z,8.2
2022-11-25T07:50:54.653Z,8.23
2022-11-25T07:51:54.789Z,8.27
2022-11-25T07:52:55.150Z,8.31
2022-11-25T07:53:54.640Z,8.3
2022-11-25T07:54:57.656Z,8.3
2022-11-25T07:55:54.752Z,8.26
2022-11-25T07:56:54.674Z,8.29
2022-11-25T07:57:55.033Z,8.31
2022-11-25T07:58:54.656Z,8.33
2022-11-25T07:59:54.670Z,8.35
2022-11-25T08:00:54.719Z,8.36
2022-11-25T08:01:54.790Z,8.36
2022-11-25T08:02:55.103Z,8.29
2022-11-25T08:03:54.748Z,8.25
2022-11-25T08:04:55.106Z,8.25
2022-11-25T08:05:57.714Z,8.24
2022-11-25T08:06:54.750Z,8.23
2022-11-25T08:07:55.064Z,8.24
2022-11-25T08:08:54.698Z,8.22
2022-11-25T08:09:54.662Z,8.25
2022-11-25T08:10:54.675Z,8.27
2022-11-25T08:11:57.841Z,8.28
2022-11-25T08:12:56.064Z,8.24
2022-11-25T08:13:54.661Z,8.26
2022-11-25T08:14:54.657Z,8.27
2022-11-25T08:15:54.727Z,8.28
2022-11-25T08:16:54.669Z,8.25
2022-11-25T08:17:54.679Z,8.2
2022-11-25T08:18:55.104Z,8.16
2022-11-25T08:19:55.032Z,8.12
2022-11-25T08:20:54.744Z,8.13
2022-11-25T08:21:54.675Z,8.13
2022-11-25T08:22:57.719Z,8.15
2022-11-25T08:23:55.155Z,8.11
2022-11-25T08:24:54.776Z,8.09
2022-11-25T08:25:54.677Z,8.07
2022-11-25T08:26:54.874Z,8.04
2022-11-25T08:27:54.676Z,8.13
2022-11-25T08:28:55.028Z,8.1
2022-11-25T08:29:54.665Z,8.07
2022-11-25T08:30:54.907Z,8.06
2022-11-25T08:31:54.647Z,8.1
2022-11-25T08:32:54.658Z,8.09
2022-11-25T08:33:55.124Z,8.2
2022-11-25T08:34:55.035Z,8.13
2022-11-25T08:35:54.755Z,8.21
2022-11-25T08:36:54.669Z,8.22
2022-11-25T08:37:54.678Z,8.25
2022-11-25T08:39:00.787Z,8.24
2022-11-25T08:39:55.130Z,8.24
2022-11-25T08:40:54.671Z,8.31
2022-11-25T08:41:54.649Z,8.38
2022-11-25T08:42:54.673Z,8.33
2022-11-25T08:43:55.264Z,8.35
2022-11-25T08:44:54.671Z,8.4
2022-11-25T08:45:54.812Z,8.48
2022-11-25T08:46:54.706Z,8.39
2022-11-25T08:47:54.658Z,8.41
2022-11-25T08:48:55.111Z,8.4
2022-11-25T08:50:00.788Z,8.36
2022-11-25T08:50:54.776Z,8.36
2022-11-25T08:51:54.658Z,8.37
2022-11-25T08:52:54.774Z,8.37
2022-11-25T08:53:55.113Z,8.44
2022-11-25T08:54:54.878Z,8.38
2022-11-25T08:55:54.683Z,8.35
2022-11-25T08:56:54.807Z,8.33
2022-11-25T08:57:54.796Z,8.32
2022-11-25T08:58:55.108Z,8.33
2022-11-25T08:59:54.732Z,8.35
2022-11-25T09:00:57.709Z,8.38
2022-11-25T09:01:54.772Z,8.4
2022-11-25T09:02:54.680Z,8.55
2022-11-25T09:03:55.028Z,8.65
2022-11-25T09:04:55.128Z,8.73
2022-11-25T09:05:54.782Z,8.81
2022-11-25T09:06:54.689Z,8.85
2022-11-25T09:07:54.774Z,8.85
2022-11-25T09:08:55.100Z,8.8
2022-11-25T09:09:54.748Z,8.88
2022-11-25T09:10:54.717Z,8.95
2022-11-25T09:11:57.938Z,9
2022-11-25T09:12:54.756Z,9.06
2022-11-25T09:13:55.147Z,9.04
2022-11-25T09:14:54.885Z,9.12
2022-11-25T09:15:54.833Z,9.19
2022-11-25T09:16:54.676Z,9.26
2022-11-25T09:17:54.674Z,9.21
2022-11-25T09:18:56.390Z,9.28
2022-11-25T09:19:55.033Z,9.23
2022-11-25T09:20:54.756Z,9.15
2022-11-25T09:21:54.674Z,9.06
2022-11-25T09:22:57.705Z,8.99
2022-11-25T09:23:55.105Z,8.98
2022-11-25T09:24:54.754Z,8.93
2022-11-25T09:25:54.673Z,8.88
2022-11-25T09:26:54.683Z,8.86
2022-11-25T09:27:54.694Z,8.81
2022-11-25T09:28:55.032Z,8.85
2022-11-25T09:29:54.773Z,8.77
2022-11-25T09:30:54.729Z,8.79
2022-11-25T09:31:55.247Z,8.8
2022-11-25T09:32:54.678Z,8.81
2022-11-25T09:33:55.029Z,8.84
2022-11-25T09:34:55.094Z,8.93
2022-11-25T09:35:54.666Z,8.95
2022-11-25T09:36:54.665Z,8.95
2022-11-25T09:37:54.658Z,8.86
2022-11-25T09:39:00.799Z,8.9
2022-11-25T09:39:54.774Z,8.86
2022-11-25T09:40:54.772Z,8.8
2022-11-25T09:41:54.649Z,8.79
2022-11-25T09:42:54.668Z,8.77
2022-11-25T09:43:55.025Z,8.77
2022-11-25T09:44:54.675Z,8.79
2022-11-25T09:45:54.681Z,8.86
2022-11-25T09:46:54.738Z,8.97
2022-11-25T09:47:57.836Z,9.1
2022-11-25T09:48:55.799Z,9.21
2022-11-25T09:50:00.774Z,9.27
2022-11-25T09:50:54.864Z,9.46
2022-11-25T09:51:54.675Z,9.55
2022-11-25T09:52:54.680Z,9.64
2022-11-25T09:53:55.044Z,9.79
2022-11-25T09:54:54.730Z,9.79
2022-11-25T09:56:01.201Z,9.92
2022-11-25T09:56:54.660Z,10
2022-11-25T09:57:59.268Z,10.03
2022-11-25T09:58:54.674Z,10.01
2022-11-25T09:59:54.678Z,10.02
2022-11-25T10:01:00.733Z,10.08
2022-11-25T10:01:54.884Z,10.14
2022-11-25T10:02:55.343Z,10.18
2022-11-25T10:03:54.795Z,10.14
2022-11-25T10:04:54.669Z,10.16
2022-11-25T10:05:55.150Z,10.18
2022-11-25T10:06:55.712Z,10.19
2022-11-25T10:07:54.672Z,10.13
2022-11-25T10:08:54.767Z,10.17
2022-11-25T10:09:54.684Z,10.13
2022-11-25T10:10:55.034Z,10
2022-11-25T10:11:57.858Z,9.95
2022-11-25T10:12:54.810Z,9.9
2022-11-25T10:13:54.685Z,9.77
2022-11-25T10:14:54.669Z,9.73
2022-11-25T10:15:55.152Z,9.85
2022-11-25T10:16:54.786Z,9.93
2022-11-25T10:17:55.040Z,9.96
2022-11-25T10:18:54.787Z,9.98
2022-11-25T10:19:54.731Z,9.93
2022-11-25T10:20:55.145Z,9.86
2022-11-25T10:21:54.821Z,9.82
2022-11-25T10:22:57.653Z,9.88
2022-11-25T10:23:54.727Z,9.89
2022-11-25T10:24:54.770Z,9.78
2022-11-25T10:25:55.179Z,9.71
2022-11-25T10:26:54.651Z,9.61
2022-11-25T10:27:54.743Z,9.55
2022-11-25T10:28:54.680Z,9.58
2022-11-25T10:29:54.769Z,9.71
2022-11-25T10:30:55.170Z,9.7
2022-11-25T10:31:54.813Z,9.64
2022-11-25T10:33:00.784Z,9.57
2022-11-25T10:33:54.654Z,9.53
2022-11-25T10:34:54.662Z,9.54
2022-11-25T10:35:55.088Z,9.6
2022-11-25T10:36:54.766Z,9.59
2022-11-25T10:37:54.672Z,9.57
2022-11-25T10:38:57.702Z,9.54
2022-11-25T10:39:56.452Z,9.59
2022-11-25T10:40:55.111Z,9.64
2022-11-25T10:41:54.750Z,9.74
2022-11-25T10:42:54.824Z,9.83
2022-11-25T10:43:54.729Z,10.09
2022-11-25T10:44:54.660Z,10.11
2022-11-25T10:45:55.156Z,10.19
2022-11-25T10:47:13.388Z,10.35
2022-11-25T10:47:55.240Z,10.52
2022-11-25T10:48:54.735Z,10.63
2022-11-25T10:49:57.699Z,10.64
2022-11-25T10:50:55.095Z,10.78
2022-11-25T10:51:54.742Z,10.82
2022-11-25T10:52:54.659Z,10.72
2022-11-25T10:53:54.671Z,10.67
2022-11-25T10:54:54.743Z,10.66
2022-11-25T10:55:55.045Z,10.62
2022-11-25T10:56:54.665Z,10.61
2022-11-25T10:57:54.665Z,10.63
2022-11-25T10:58:54.679Z,10.66
2022-11-25T10:59:54.658Z,10.75
2022-11-25T11:01:00.771Z,10.88
2022-11-25T11:01:54.821Z,10.96
2022-11-25T11:02:55.212Z,10.94
2022-11-25T11:03:54.777Z,10.87
2022-11-25T11:04:54.684Z,10.72
2022-11-25T11:05:55.121Z,10.66
2022-11-25T11:06:54.692Z,10.57
2022-11-25T11:07:54.858Z,10.58
2022-11-25T11:08:54.673Z,10.76
2022-11-25T11:09:54.803Z,10.87
2022-11-25T11:10:57.332Z,10.86
2022-11-25T11:11:57.883Z,10.85
2022-11-25T11:12:54.860Z,10.92
2022-11-25T11:13:54.670Z,11.04
2022-11-25T11:14:54.669Z,11.19
2022-11-25T11:15:55.159Z,11.4
2022-11-25T11:16:54.752Z,11.42
2022-11-25T11:17:55.036Z,11.49
2022-11-25T11:18:54.674Z,11.4
2022-11-25T11:19:54.655Z,11.37
2022-11-25T11:20:54.788Z,11.28
2022-11-25T11:21:54.750Z,11.17
2022-11-25T11:22:57.698Z,11.12
2022-11-25T11:23:54.740Z,11.17
2022-11-25T11:24:54.769Z,11.27
2022-11-25T11:25:55.112Z,11.46
2022-11-25T11:26:54.751Z,11.45
2022-11-25T11:27:54.689Z,11.56
2022-11-25T11:28:54.681Z,11.76
2022-11-25T11:29:54.671Z,11.91
2022-11-25T11:30:55.125Z,11.98
2022-11-25T11:31:54.797Z,12.03
2022-11-25T11:32:55.160Z,12.02
2022-11-25T11:33:57.827Z,12.18
2022-11-25T11:34:54.750Z,12.23
2022-11-25T11:35:55.113Z,12.27
2022-11-25T11:36:54.751Z,12.31
2022-11-25T11:37:54.684Z,12.35
2022-11-25T11:38:54.681Z,12.37
2022-11-25T11:39:54.654Z,12.29
2022-11-25T11:40:55.177Z,12.25
2022-11-25T11:41:54.719Z,12.29
2022-11-25T11:42:54.789Z,12.24
2022-11-25T11:43:54.673Z,12.16
2022-11-25T11:44:57.811Z,12.11
2022-11-25T11:45:55.050Z,12.08
2022-11-25T11:46:54.829Z,11.92
2022-11-25T11:47:55.113Z,11.87
2022-11-25T11:48:54.752Z,11.85
2022-11-25T11:49:54.712Z,11.82
2022-11-25T11:50:55.041Z,11.79
2022-11-25T11:51:54.675Z,11.67
2022-11-25T11:52:54.762Z,11.66
2022-11-25T11:53:54.746Z,11.61
2022-11-25T11:54:54.675Z,11.61
2022-11-25T11:56:18.919Z,11.56
2022-11-25T11:56:55.643Z,11.59
2022-11-25T11:57:54.781Z,11.61
2022-11-25T11:58:54.660Z,11.64
2022-11-25T11:59:54.737Z,11.65
2022-11-25T12:01:00.739Z,11.61
2022-11-25T12:01:54.874Z,11.69
2022-11-25T12:02:55.147Z,11.76
2022-11-25T12:03:54.921Z,11.85
2022-11-25T12:04:54.679Z,11.85
2022-11-25T12:05:55.114Z,11.83
2022-11-25T12:06:54.676Z,11.79
2022-11-25T12:07:54.815Z,11.78
2022-11-25T12:08:54.657Z,11.76
2022-11-25T12:09:54.677Z,11.7
2022-11-25T12:10:54.831Z,11.68
2022-11-25T12:11:58.004Z,11.73
2022-11-25T12:12:54.740Z,11.79
2022-11-25T12:14:00.574Z,11.86
2022-11-25T12:14:54.661Z,11.85
2022-11-25T12:15:55.127Z,11.78
2022-11-25T12:16:54.710Z,11.79
2022-11-25T12:17:55.041Z,11.75
2022-11-25T12:18:54.701Z,11.66
2022-11-25T12:19:54.678Z,11.61
2022-11-25T12:20:55.135Z,11.68
2022-11-25T12:21:54.751Z,11.74
2022-11-25T12:22:57.707Z,11.75
2022-11-25T12:23:54.750Z,11.72
2022-11-25T12:24:54.652Z,11.68
2022-11-25T12:25:55.035Z,11.55
2022-11-25T12:26:54.675Z,11.36
2022-11-25T12:27:54.675Z,11.24
2022-11-25T12:28:54.797Z,11.13
2022-11-25T12:29:54.677Z,11.06
2022-11-25T12:30:55.105Z,11.02
2022-11-25T12:31:54.822Z,10.93
2022-11-25T12:32:55.152Z,10.89
2022-11-25T12:33:57.678Z,10.8
2022-11-25T12:34:54.774Z,10.75
2022-11-25T12:35:55.157Z,10.75
2022-11-25T12:36:54.766Z,10.76
2022-11-25T12:37:54.670Z,10.78
2022-11-25T12:38:54.654Z,10.77
2022-11-25T12:39:54.675Z,10.8
2022-11-25T12:40:55.040Z,10.87
2022-11-25T12:41:54.733Z,10.94
2022-11-25T12:42:54.681Z,10.95
2022-11-25T12:43:54.671Z,11.02
2022-11-25T12:45:00.800Z,11.1
2022-11-25T12:45:54.786Z,11.2
2022-11-25T12:46:54.675Z,11.23
2022-11-25T12:47:55.127Z,11.28
2022-11-25T12:48:54.660Z,11.28
2022-11-25T12:49:54.798Z,11.25
2022-11-25T12:50:54.670Z,11.28
2022-11-25T12:51:54.671Z,11.26
2022-11-25T12:52:54.811Z,11.22
2022-11-25T12:53:54.678Z,11.15
2022-11-25T12:54:55.112Z,11.06
2022-11-25T12:55:57.705Z,11.05
2022-11-25T12:56:54.742Z,11.03
2022-11-25T12:57:54.649Z,10.96
2022-11-25T12:58:54.746Z,10.84
2022-11-25T13:00:11.244Z,10.88
2022-11-25T13:00:54.821Z,10.92
2022-11-25T13:01:54.791Z,10.96
2022-11-25T13:02:55.145Z,11
2022-11-25T13:03:54.681Z,11.13
2022-11-25T13:05:00.447Z,11.17
2022-11-25T13:05:54.745Z,11.19
2022-11-25T13:06:57.661Z,11.24
2022-11-25T13:07:54.821Z,11.28
2022-11-25T13:08:54.667Z,11.3
2022-11-25T13:09:55.102Z,11.3
2022-11-25T13:10:54.756Z,11.4
2022-11-25T13:11:54.880Z,11.57
2022-11-25T13:12:55.206Z,11.67
2022-11-25T13:13:55.262Z,11.75
2022-11-25T13:14:55.440Z,11.78
2022-11-25T13:15:55.004Z,11.9
2022-11-25T13:16:55.270Z,11.99